Time;durP1;ratioP1;P1;durP2;ratioP2;P2;SDS_P1;SDS_P2;PMS_P1;PMS_P2;Temp;Humidity;BMP_temperature;BMP_pressure;BME280_temperature;BME280_humidity;BME280_pressure;Samples;Min_cycle;Max_cycle;Signal;HPM_P1;HPM_P2
2022/03/10 00:00:32;;;;;;;21.35;13.73;;;1.90;99.90;;;;;;4996730;28;20033;-90
2022/03/10 00:02:57;;;;;;;21.65;13.65;;;1.70;99.90;;;;;;4997712;28;20429;-91
2022/03/10 00:05:29;;;;;;;24.25;12.88;;;0.90;99.90;;;;;;4996955;28;20056;-91
2022/03/10 00:08:05;;;;;;;20.88;12.90;;;0.90;99.90;;;;;;4997366;28;20052;-92
2022/03/10 00:10:41;;;;;;;24.48;13.63;;;0.80;99.90;;;;;;4998146;28;20091;-92
2022/03/10 00:13:19;;;;;;;21.42;12.73;;;1.40;99.90;;;;;;4997085;28;20136;-92
2022/03/10 00:15:54;;;;;;;21.80;12.32;;;0.70;99.90;;;;;;4997726;28;20103;-92
2022/03/10 00:18:32;;;;;;;21.92;13.38;;;1.50;99.90;;;;;;4997368;28;20039;-90
2022/03/10 00:21:07;;;;;;;20.98;12.98;;;1.90;99.90;;;;;;4996937;28;20049;-92
2022/03/10 00:23:33;;;;;;;21.40;12.55;;;0.40;99.90;;;;;;4998082;28;20277;-91
2022/03/10 00:26:05;;;;;;;20.95;13.20;;;0.60;99.90;;;;;;4996901;28;20045;-91
2022/03/10 00:28:46;;;;;;;19.50;12.23;;;0.50;99.90;;;;;;4997082;28;20046;-92
2022/03/10 00:31:24;;;;;;;27.08;14.02;;;0.50;99.90;;;;;;4997630;28;20045;-90
2022/03/10 00:33:55;;;;;;;21.80;13.32;;;0.60;99.90;;;;;;4996313;28;20095;-91
2022/03/10 00:36:27;;;;;;;24.58;13.63;;;1.20;99.90;;;;;;4997124;28;20084;-91
2022/03/10 00:39:06;;;;;;;26.27;13.85;;;1.20;99.90;;;;;;4997867;28;20100;-92
2022/03/10 00:41:42;;;;;;;21.15;12.50;;;1.70;99.90;;;;;;4996273;28;20098;-91
2022/03/10 00:44:08;;;;;;;20.52;13.07;;;0.50;99.90;;;;;;4996778;28;20120;-91
2022/03/10 00:46:51;;;;;;;29.42;13.75;;;0.50;99.90;;;;;;4998402;28;20149;-91
2022/03/10 00:49:16;;;;;;;23.30;12.80;;;0.50;99.90;;;;;;4988498;28;20078;-92
2022/03/10 00:51:53;;;;;;;22.33;12.90;;;0.20;99.90;;;;;;4997310;28;20130;-91
2022/03/10 00:54:44;;;;;;;20.00;13.25;;;0.40;99.90;;;;;;4997144;28;20675;-90
2022/03/10 00:57:19;;;;;;;23.08;13.85;;;0.10;99.90;;;;;;4996679;28;20059;-91
2022/03/10 00:59:51;;;;;;;19.58;12.50;;;0.30;99.90;;;;;;4998499;28;20068;-91
2022/03/10 01:02:17;;;;;;;25.40;13.32;;;-0.10;99.90;;;;;;4997405;28;20444;-91
2022/03/10 01:04:49;;;;;;;20.77;13.52;;;0.90;99.90;;;;;;4998311;28;20048;-91
2022/03/10 01:07:18;;;;;;;26.10;14.20;;;0.20;99.90;;;;;;5001007;28;20555;-92
2022/03/10 01:09:52;;;;;;;28.02;14.18;;;0.40;99.90;;;;;;4996435;28;20100;-90
2022/03/10 01:12:20;;;;;;;22.65;13.20;;;1.00;99.90;;;;;;4995398;28;20496;-90
2022/03/10 01:14:46;;;;;;;25.48;13.48;;;0.20;99.90;;;;;;4997416;28;20096;-90
2022/03/10 01:17:12;;;;;;;25.13;14.18;;;0.10;99.90;;;;;;4978851;28;20500;-91
2022/03/10 01:19:58;;;;;;;22.63;13.48;;;0.60;99.90;;;;;;4977469;28;20046;-90
2022/03/10 01:22:45;;;;;;;21.27;13.88;;;0.90;99.90;;;;;;4992958;28;20042;-90
2022/03/10 01:25:19;;;;;;;26.83;14.07;;;0.10;99.90;;;;;;4976829;28;20147;-90
2022/03/10 01:27:56;;;;;;;22.95;14.38;;;0.90;99.90;;;;;;4976820;28;20100;-90
2022/03/10 01:30:30;;;;;;;23.25;13.73;;;-0.20;99.90;;;;;;4975933;28;20153;-90
2022/03/10 01:33:05;;;;;;;20.48;13.10;;;0.10;99.90;;;;;;4976691;28;20045;-90
2022/03/10 01:35:36;;;;;;;23.40;13.15;;;0.20;99.90;;;;;;4976675;28;20054;-90
2022/03/10 01:38:07;;;;;;;19.88;13.30;;;0.10;99.90;;;;;;4975839;28;20137;-90
2022/03/10 01:40:36;;;;;;;21.08;13.10;;;0.10;99.90;;;;;;4976974;28;20080;-89
2022/03/10 01:43:01;;;;;;;21.67;13.95;;;0.00;99.90;;;;;;4976271;28;20041;-90
2022/03/10 01:45:28;;;;;;;22.52;13.20;;;0.10;99.90;;;;;;4976476;28;20092;-90
2022/03/10 01:48:21;;;;;;;21.70;13.07;;;0.10;99.90;;;;;;4978568;28;20108;-90
2022/03/10 01:50:47;;;;;;;18.17;12.82;;;0.20;99.90;;;;;;4977011;28;20048;-90
2022/03/10 01:53:16;;;;;;;22.83;12.75;;;0.50;99.90;;;;;;4975966;28;20054;-89
2022/03/10 01:56:08;;;;;;;21.10;11.63;;;0.70;99.90;;;;;;4976549;28;20054;-89
2022/03/10 01:58:34;;;;;;;23.20;12.27;;;0.00;99.90;;;;;;4975715;28;20050;-89
2022/03/10 02:01:10;;;;;;;22.23;13.45;;;1.30;99.90;;;;;;4975931;28;20068;-88
2022/03/10 02:03:45;;;;;;;20.98;13.75;;;0.40;99.90;;;;;;4976370;28;20046;-89
2022/03/10 02:06:25;;;;;;;19.50;12.23;;;0.10;99.90;;;;;;4975000;28;20088;-88
2022/03/10 02:12:04;;;;;;;22.97;13.10;;;-0.20;99.90;;;;;;4991270;28;20056;-89
2022/03/10 02:17:41;;;;;;;25.63;13.80;;;-0.10;99.90;;;;;;4991980;28;20050;-88
2022/03/10 02:20:20;;;;;;;23.02;13.77;;;0.70;99.90;;;;;;4975136;28;20060;-88
2022/03/10 02:22:56;;;;;;;24.40;13.32;;;-0.10;99.90;;;;;;4975637;28;20045;-88
2022/03/10 02:25:25;;;;;;;19.45;13.35;;;-0.20;99.90;;;;;;4979560;28;20053;-88
2022/03/10 02:27:55;;;;;;;22.75;14.20;;;-0.50;99.90;;;;;;4977995;28;20057;-90
2022/03/10 02:30:32;;;;;;;23.80;13.90;;;-0.10;99.90;;;;;;4979174;28;20481;-88
2022/03/10 02:33:07;;;;;;;25.77;13.20;;;0.10;99.90;;;;;;4979206;28;20050;-89
2022/03/10 02:35:33;;;;;;;29.98;14.70;;;-0.10;99.90;;;;;;4979271;28;20478;-89
2022/03/10 02:38:07;;;;;;;22.80;13.82;;;0.10;99.90;;;;;;4979445;28;20100;-88
2022/03/10 02:40:32;;;;;;;20.52;12.65;;;-0.10;99.90;;;;;;4978671;28;20041;-88
2022/03/10 02:42:58;;;;;;;21.35;13.23;;;0.40;99.90;;;;;;4980761;28;20061;-89
2022/03/10 02:45:36;;;;;;;21.63;13.93;;;0.80;99.90;;;;;;4979242;28;20045;-88
2022/03/10 02:48:02;;;;;;;25.92;14.73;;;0.60;99.90;;;;;;4978732;28;20038;-88
2022/03/10 02:50:28;;;;;;;26.17;14.32;;;-0.10;99.90;;;;;;4979499;28;20554;-88
2022/03/10 02:53:00;;;;;;;24.38;14.13;;;0.80;99.90;;;;;;4979086;28;20057;-89
2022/03/10 02:55:32;;;;;;;25.70;14.00;;;0.90;99.90;;;;;;4978546;28;20113;-89
2022/03/10 02:57:58;;;;;;;22.17;13.55;;;-0.10;99.90;;;;;;4978855;28;20053;-88
2022/03/10 03:00:33;;;;;;;23.77;13.35;;;-0.20;99.90;;;;;;4979136;28;20423;-88
2022/03/10 03:02:58;;;;;;;22.92;14.75;;;0.90;99.90;;;;;;4978685;28;20048;-88
2022/03/10 03:05:39;;;;;;;22.35;14.02;;;-0.30;99.90;;;;;;4994923;28;20088;-88
2022/03/10 03:08:06;;;;;;;25.95;13.95;;;-0.40;99.90;;;;;;4979073;28;20085;-88
2022/03/10 03:10:36;;;;;;;20.33;13.02;;;-0.50;99.90;;;;;;4978335;28;20417;-88
2022/03/10 03:13:14;;;;;;;30.33;15.18;;;-0.40;99.90;;;;;;4978928;28;20067;-89
2022/03/10 03:15:40;;;;;;;23.88;13.55;;;-0.40;99.90;;;;;;4977657;28;20504;-87
2022/03/10 03:18:06;;;;;;;21.35;13.75;;;-0.60;99.90;;;;;;4978369;28;20499;-87
2022/03/10 03:20:31;;;;;;;21.48;13.68;;;-0.30;99.90;;;;;;4977966;28;20093;-88
2022/03/10 03:23:07;;;;;;;21.02;13.20;;;-0.30;99.90;;;;;;4977825;28;20120;-88
2022/03/10 03:25:32;;;;;;;27.92;14.15;;;-0.50;99.90;;;;;;4977872;28;20050;-87
2022/03/10 03:28:01;;;;;;;22.88;13.65;;;-0.30;99.90;;;;;;4977876;28;20054;-87
2022/03/10 03:30:27;;;;;;;26.35;13.52;;;-1.10;99.90;;;;;;4977453;28;20053;-88
2022/03/10 03:32:52;;;;;;;23.48;13.80;;;-0.30;99.90;;;;;;4977944;28;20054;-87
2022/03/10 03:35:33;;;;;;;22.70;12.73;;;-0.20;99.90;;;;;;4977573;28;20054;-88
2022/03/10 03:37:59;;;;;;;23.95;14.10;;;-0.40;99.90;;;;;;4993340;28;20085;-87
2022/03/10 03:40:28;;;;;;;23.63;13.95;;;0.00;99.90;;;;;;4977819;28;20092;-88
2022/03/10 03:43:09;;;;;;;22.23;13.70;;;-0.40;99.90;;;;;;4977107;28;20633;-86
2022/03/10 03:45:40;;;;;;;22.98;13.48;;;0.80;99.90;;;;;;4977524;28;20048;-87
2022/03/10 03:48:09;;;;;;;21.02;12.52;;;-0.30;99.90;;;;;;4977245;28;20049;-87
2022/03/10 03:50:41;;;;;;;20.42;13.02;;;-0.50;99.90;;;;;;4977677;28;20108;-87
2022/03/10 03:53:06;;;;;;;22.50;13.45;;;-0.30;99.90;;;;;;4977375;28;20061;-87
2022/03/10 03:55:32;;;;;;;22.00;12.70;;;-0.30;99.90;;;;;;4977686;28;20109;-86
2022/03/10 03:57:58;;;;;;;22.45;13.18;;;-0.30;99.90;;;;;;4976475;28;20052;-88
2022/03/10 04:00:23;;;;;;;20.58;13.98;;;0.40;99.90;;;;;;4977634;28;20545;-86
2022/03/10 04:02:49;;;;;;;18.92;12.35;;;-0.30;99.90;;;;;;4977513;28;20125;-88
2022/03/10 04:05:16;;;;;;;20.25;13.27;;;0.60;99.90;;;;;;4983436;28;20033;-88
2022/03/10 04:07:42;;;;;;;21.00;12.43;;;-0.10;99.90;;;;;;4997618;28;20472;-87
2022/03/10 04:10:14;;;;;;;26.83;13.40;;;0.10;99.90;;;;;;4996837;28;20133;-88
2022/03/10 04:12:40;;;;;;;21.83;13.45;;;-0.50;99.90;;;;;;5012012;28;20127;-87
2022/03/10 04:15:06;;;;;;;22.02;12.25;;;-0.50;99.90;;;;;;4996500;28;20556;-88
2022/03/10 04:17:31;;;;;;;24.58;12.52;;;-0.50;99.90;;;;;;4996773;28;20045;-88
2022/03/10 04:20:02;;;;;;;18.58;12.50;;;-0.50;99.90;;;;;;4996066;28;20050;-87
2022/03/10 04:22:31;;;;;;;24.80;12.10;;;-0.60;99.90;;;;;;5012778;28;20089;-87
2022/03/10 04:24:57;;;;;;;23.75;13.43;;;-0.60;99.90;;;;;;4996717;28;20556;-88
2022/03/10 04:27:22;;;;;;;23.05;13.50;;;-0.50;99.90;;;;;;4995075;28;20045;-87
2022/03/10 04:30:05;;;;;;;21.50;12.48;;;0.20;99.90;;;;;;4997296;28;20049;-87
2022/03/10 04:32:51;;;;;;;22.35;12.95;;;-0.50;99.90;;;;;;4996504;28;20068;-86
2022/03/10 04:35:26;;;;;;;20.08;13.13;;;-0.50;99.90;;;;;;4995354;28;20091;-86
2022/03/10 04:38:08;;;;;;;18.98;12.77;;;0.40;99.90;;;;;;4986805;28;20054;-87
2022/03/10 04:40:34;;;;;;;19.25;11.98;;;-0.70;99.90;;;;;;4976243;28;20093;-86
2022/03/10 04:42:59;;;;;;;22.35;12.88;;;0.10;99.90;;;;;;4975596;28;20578;-86
2022/03/10 04:45:34;;;;;;;21.52;13.60;;;0.70;99.90;;;;;;4976694;28;20049;-86
2022/03/10 04:48:02;;;;;;;25.05;13.75;;;0.70;99.90;;;;;;4974506;28;20042;-88
2022/03/10 04:50:29;;;;;;;21.40;12.75;;;-0.70;99.90;;;;;;4976522;28;20046;-88
2022/03/10 04:52:57;;;;;;;22.77;13.52;;;-0.50;99.90;;;;;;4976283;28;20168;-88
2022/03/10 04:55:24;;;;;;;24.38;13.38;;;0.50;99.90;;;;;;4989185;28;20054;-88
2022/03/10 04:57:49;;;;;;;20.60;13.20;;;0.20;99.90;;;;;;4993055;28;20053;-88
2022/03/10 05:00:18;;;;;;;28.10;12.27;;;-0.30;99.90;;;;;;4976812;28;20045;-88
2022/03/10 05:02:45;;;;;;;24.88;14.45;;;-0.70;99.90;;;;;;4976214;28;20048;-89
2022/03/10 05:05:13;;;;;;;22.85;12.32;;;-0.20;99.90;;;;;;4976549;28;20508;-87
2022/03/10 05:07:49;;;;;;;21.95;13.25;;;-0.60;99.90;;;;;;4993134;28;20505;-87
2022/03/10 05:10:15;;;;;;;21.17;12.80;;;-0.10;99.90;;;;;;4976175;28;20052;-87
2022/03/10 05:13:19;;;;;;;24.65;13.43;;;-0.10;99.90;;;;;;4975425;28;20692;-87
2022/03/10 05:15:45;;;;;;;20.95;13.35;;;-0.60;99.90;;;;;;4909625;28;20061;-88
2022/03/10 05:18:27;;;;;;;22.17;13.40;;;-0.80;99.90;;;;;;4976788;28;20555;-88
2022/03/10 05:20:53;;;;;;;21.92;13.63;;;-0.90;99.90;;;;;;4976297;28;20033;-87
2022/03/10 05:23:18;;;;;;;22.75;13.52;;;-0.40;99.90;;;;;;4975953;28;20405;-88
2022/03/10 05:25:44;;;;;;;22.45;13.38;;;-1.00;99.90;;;;;;4975286;28;20050;-87
2022/03/10 05:28:17;;;;;;;22.60;14.18;;;-0.50;99.90;;;;;;4975245;28;20081;-87
2022/03/10 05:30:45;;;;;;;;;;;-1.10;99.90;;;;;;4992263;28;20048;-87
2022/03/10 05:33:11;;;;;;;21.50;13.55;;;-0.90;99.90;;;;;;4975804;28;19922;-88
2022/03/10 05:35:40;;;;;;;19.02;12.57;;;-0.60;99.90;;;;;;4975355;28;20046;-86
2022/03/10 05:38:09;;;;;;;21.08;12.70;;;-1.40;99.90;;;;;;4974770;28;20405;-87
2022/03/10 05:40:37;;;;;;;20.95;12.98;;;-1.10;99.90;;;;;;4975109;28;20046;-87
2022/03/10 05:43:03;;;;;;;21.48;12.85;;;-1.10;99.90;;;;;;4974585;28;20524;-88
2022/03/10 05:45:31;;;;;;;21.08;12.60;;;-1.00;99.90;;;;;;4975443;28;20081;-87
2022/03/10 05:48:00;;;;;;;20.58;12.85;;;-0.30;99.90;;;;;;4975489;28;20049;-87
2022/03/10 05:50:26;;;;;;;23.25;13.23;;;-0.80;99.90;;;;;;4974016;28;20117;-87
2022/03/10 05:52:53;;;;;;;23.02;12.65;;;-1.70;99.90;;;;;;4974770;28;20057;-85
2022/03/10 05:55:27;;;;;;;22.50;13.00;;;-0.90;99.90;;;;;;4974666;28;20085;-86
2022/03/10 05:57:53;;;;;;;27.58;13.80;;;-0.80;99.90;;;;;;4973095;28;20046;-85
2022/03/10 06:00:19;;;;;;;31.20;13.80;;;-0.70;99.90;;;;;;4975061;28;20050;-86
2022/03/10 06:02:45;;;;;;;26.25;13.65;;;-0.70;99.90;;;;;;4974599;28;20046;-85
2022/03/10 06:05:11;;;;;;;23.13;12.77;;;-0.70;99.90;;;;;;4974067;28;20064;-86
2022/03/10 06:07:37;;;;;;;20.65;12.40;;;-0.40;99.90;;;;;;4974494;28;20137;-86
2022/03/10 06:10:12;;;;;;;21.80;13.38;;;-0.30;99.90;;;;;;4990647;28;20073;-85
2022/03/10 06:12:38;;;;;;;19.20;12.90;;;-1.20;99.90;;;;;;4973106;28;20572;-85
2022/03/10 06:15:06;;;;;;;20.58;12.93;;;0.00;99.90;;;;;;4974365;28;20042;-87
2022/03/10 06:17:32;;;;;;;21.75;12.80;;;-0.60;99.90;;;;;;4973631;28;20143;-86
2022/03/10 06:19:59;;;;;;;20.73;12.32;;;-0.60;99.90;;;;;;4973808;28;20485;-85
2022/03/10 06:22:29;;;;;;;22.30;12.52;;;-0.60;99.90;;;;;;4974335;28;20355;-86
2022/03/10 06:24:55;;;;;;;21.85;12.68;;;-0.20;99.90;;;;;;4974889;28;20042;-84
2022/03/10 06:27:22;;;;;;;24.58;14.10;;;-0.50;99.90;;;;;;4972730;28;20052;-85
2022/03/10 06:29:49;;;;;;;29.00;12.25;;;-0.50;99.90;;;;;;4975065;28;20136;-86
2022/03/10 06:32:19;;;;;;;26.27;12.95;;;-0.40;99.90;;;;;;4973770;28;20129;-85
2022/03/10 06:34:48;;;;;;;24.85;12.70;;;-0.50;99.90;;;;;;4991088;28;20100;-85
2022/03/10 06:37:14;;;;;;;23.20;13.25;;;-0.30;99.90;;;;;;4977882;28;20156;-86
2022/03/10 06:39:49;;;;;;;23.17;13.40;;;0.60;99.90;;;;;;4993548;28;20084;-85
2022/03/10 06:42:15;;;;;;;21.30;12.63;;;-0.50;99.90;;;;;;4992318;28;20045;-87
2022/03/10 06:44:41;;;;;;;25.00;14.15;;;-0.20;99.90;;;;;;4994583;28;20044;-85
2022/03/10 06:47:16;;;;;;;21.52;13.30;;;-0.10;99.90;;;;;;4988171;28;20432;-86
2022/03/10 06:49:42;;;;;;;22.75;12.80;;;-0.40;99.90;;;;;;4993736;28;20045;-84
2022/03/10 06:52:20;;;;;;;26.40;13.57;;;1.10;99.90;;;;;;5008924;28;20049;-86
2022/03/10 06:54:46;;;;;;;18.85;11.93;;;0.10;99.90;;;;;;4993229;28;20045;-86
2022/03/10 06:57:24;;;;;;;30.00;13.38;;;0.90;99.90;;;;;;4991734;28;20516;-86
2022/03/10 06:59:50;;;;;;;23.67;13.02;;;0.50;99.90;;;;;;4993480;28;20045;-85
2022/03/10 07:02:17;;;;;;;27.50;13.98;;;0.50;99.90;;;;;;4995463;28;20428;-84
2022/03/10 07:04:43;;;;;;;21.30;13.93;;;0.70;99.90;;;;;;4998044;28;20117;-83
2022/03/10 07:07:15;;;;;;;22.90;13.77;;;0.60;99.90;;;;;;4989127;28;20069;-85
2022/03/10 07:09:41;;;;;;;19.25;13.55;;;2.00;99.90;;;;;;4992527;28;20408;-84
2022/03/10 07:12:09;;;;;;;21.10;13.60;;;0.70;99.90;;;;;;4995047;28;20056;-84
2022/03/10 07:14:34;;;;;;;22.65;13.57;;;0.80;99.90;;;;;;5012317;28;20076;-84
2022/03/10 07:17:00;;;;;;;25.15;14.45;;;1.20;99.90;;;;;;4995804;28;20073;-84
2022/03/10 07:19:35;;;;;;;21.33;13.75;;;0.90;99.90;;;;;;4996494;28;20045;-84
2022/03/10 07:22:01;;;;;;;23.48;13.38;;;2.20;99.90;;;;;;4995804;28;20076;-85
2022/03/10 07:24:26;;;;;;;24.25;13.90;;;1.00;99.90;;;;;;4996808;28;20133;-86
2022/03/10 07:26:52;;;;;;;29.02;13.10;;;1.20;99.90;;;;;;4992100;28;20042;-85
2022/03/10 07:29:18;;;;;;;25.00;13.32;;;1.80;99.90;;;;;;4975448;28;20057;-86
2022/03/10 07:31:44;;;;;;;21.27;13.23;;;1.40;99.90;;;;;;4993337;28;20038;-86
2022/03/10 07:34:19;;;;;;;23.90;12.98;;;1.20;99.90;;;;;;4992579;28;20062;-85
2022/03/10 07:36:45;;;;;;;23.13;12.30;;;2.60;99.90;;;;;;4976128;28;20084;-85
2022/03/10 07:39:20;;;;;;;21.90;12.30;;;1.80;99.90;;;;;;4976423;28;20042;-86
2022/03/10 07:41:45;;;;;;;22.35;13.68;;;2.80;99.90;;;;;;4975782;28;20526;-86
2022/03/10 07:44:11;;;;;;;24.13;14.02;;;3.20;99.90;;;;;;4974810;28;20041;-84
2022/03/10 07:46:37;;;;;;;19.95;12.60;;;2.20;99.90;;;;;;4976225;28;21929;-86
2022/03/10 07:49:04;;;;;;;21.77;13.43;;;2.70;99.90;;;;;;5005193;28;20048;-84
2022/03/10 07:51:43;;;;;;;22.02;12.95;;;2.50;99.90;;;;;;4996440;28;20049;-85
2022/03/10 07:54:09;;;;;;;25.70;13.63;;;2.70;99.90;;;;;;4992937;28;20053;-88
2022/03/10 07:56:35;;;;;;;22.00;13.30;;;3.50;99.90;;;;;;4992628;28;20037;-86
2022/03/10 07:59:21;;;;;;;21.10;12.52;;;2.90;99.90;;;;;;4980495;28;20063;-86
2022/03/10 08:01:47;;;;;;;21.23;13.18;;;3.00;99.90;;;;;;4974802;28;20042;-86
2022/03/10 08:04:25;;;;;;;23.27;13.68;;;4.10;99.90;;;;;;4972738;28;20493;-85
2022/03/10 08:06:51;;;;;;;22.35;12.90;;;3.00;99.90;;;;;;4989896;28;20052;-87
2022/03/10 08:09:17;;;;;;;19.15;12.52;;;3.50;99.90;;;;;;4993117;28;20072;-85
2022/03/10 08:11:42;;;;;;;23.70;13.23;;;3.40;99.90;;;;;;4995556;28;20499;-85
2022/03/10 08:14:09;;;;;;;20.92;12.43;;;3.90;99.90;;;;;;4994973;28;20108;-85
2022/03/10 08:16:40;;;;;;;20.08;12.63;;;4.40;99.90;;;;;;5011684;28;20089;-85
2022/03/10 08:19:09;;;;;;;22.25;12.50;;;4.10;99.90;;;;;;4994676;28;20062;-83
2022/03/10 08:21:34;;;;;;;23.63;13.50;;;4.90;99.90;;;;;;4995826;28;20046;-86
2022/03/10 08:24:00;;;;;;;41.65;13.27;;;5.00;99.90;;;;;;5011066;28;20053;-85
2022/03/10 08:26:26;;;;;;;25.45;13.27;;;4.60;99.90;;;;;;4993156;28;20076;-84
2022/03/10 08:28:53;;;;;;;18.30;12.05;;;4.00;99.90;;;;;;4995957;28;20484;-81
2022/03/10 08:31:20;;;;;;;20.48;12.68;;;5.30;99.90;;;;;;5039636;28;20558;-84
2022/03/10 08:33:46;;;;;;;24.38;12.18;;;4.20;99.90;;;;;;5000275;28;20079;-86
2022/03/10 08:36:13;;;;;;;22.77;13.23;;;5.40;99.90;;;;;;4994672;28;20708;-84
2022/03/10 08:38:39;;;;;;;22.70;12.82;;;5.50;99.90;;;;;;4995990;28;20547;-87
2022/03/10 08:41:05;;;;;;;29.38;13.23;;;4.50;99.90;;;;;;4994353;28;20061;-85
2022/03/10 08:43:31;;;;;;;20.55;12.35;;;5.20;99.90;;;;;;5027604;28;20138;-86
2022/03/10 08:46:03;;;;;;;18.55;12.02;;;4.60;99.90;;;;;;4983211;28;20545;-86
2022/03/10 08:48:31;;;;;;;24.40;12.85;;;4.70;99.90;;;;;;4986683;28;20048;-87
2022/03/10 08:50:59;;;;;;;18.42;11.93;;;4.80;99.90;;;;;;4989101;28;20037;-85
2022/03/10 08:53:25;;;;;;;19.63;11.90;;;5.50;99.90;;;;;;4982141;28;20045;-85
2022/03/10 08:56:17;;;;;;;19.67;12.98;;;5.00;99.90;;;;;;4984374;28;20045;-85
2022/03/10 08:58:42;;;;;;;23.83;12.35;;;5.10;99.90;;;;;;5001438;28;20037;-85
2022/03/10 09:01:20;;;;;;;21.77;11.80;;;5.80;99.90;;;;;;5007911;28;20489;-83
2022/03/10 09:03:46;;;;;;;21.35;13.32;;;5.20;99.90;;;;;;5010769;28;20041;-84
2022/03/10 09:06:13;;;;;;;20.00;12.27;;;5.30;99.90;;;;;;4990972;28;20063;-84
2022/03/10 09:08:39;;;;;;;21.58;13.02;;;6.00;99.90;;;;;;4979542;28;20045;-84
2022/03/10 09:11:06;;;;;;;23.77;12.23;;;5.50;99.90;;;;;;4974321;28;20137;-84
2022/03/10 09:13:32;;;;;;;20.77;12.38;;;5.60;99.90;;;;;;4983910;28;20081;-84
2022/03/10 09:15:58;;;;;;;20.40;13.27;;;5.70;99.90;;;;;;4998381;28;20057;-83
2022/03/10 09:18:24;;;;;;;18.33;12.52;;;5.70;99.90;;;;;;4977008;28;20033;-84
2022/03/10 09:20:49;;;;;;;25.52;13.10;;;5.80;99.90;;;;;;4974625;28;20061;-83
2022/03/10 09:23:15;;;;;;;21.17;12.65;;;5.90;99.90;;;;;;4973646;28;20156;-85
2022/03/10 09:25:41;;;;;;;23.88;12.82;;;6.20;99.90;;;;;;4990489;28;20045;-85
2022/03/10 09:28:07;;;;;;;16.80;11.90;;;6.60;99.90;;;;;;4986277;28;20692;-85
2022/03/10 09:30:33;;;;;;;18.50;12.68;;;7.00;99.90;;;;;;4975751;28;20045;-85
2022/03/10 09:32:59;;;;;;;18.95;11.93;;;6.30;99.90;;;;;;5000088;28;20488;-83
2022/03/10 09:35:25;;;;;;;17.92;12.60;;;7.00;99.90;;;;;;4982290;28;20108;-83
2022/03/10 09:37:52;;;;;;;18.10;12.07;;;6.50;99.90;;;;;;4982487;28;20164;-84
2022/03/10 09:40:18;;;;;;;21.48;12.27;;;6.80;99.90;;;;;;4974582;28;20033;-84
2022/03/10 09:42:47;;;;;;;23.70;11.57;;;6.80;99.90;;;;;;4981133;28;20045;-83
2022/03/10 09:45:15;;;;;;;21.33;12.20;;;6.90;99.90;;;;;;4983094;28;20469;-84
2022/03/10 09:47:42;;;;;;;19.42;11.88;;;7.00;99.90;;;;;;4984082;28;20425;-84
2022/03/10 09:50:11;;;;;;;20.77;12.98;;;7.20;99.90;;;;;;4990374;28;20052;-84
2022/03/10 09:52:38;;;;;;;18.02;11.73;;;7.30;99.90;;;;;;4993557;28;20057;-83
2022/03/10 09:55:06;;;;;;;19.15;12.05;;;7.30;99.90;;;;;;4993168;28;20041;-83
2022/03/10 09:57:35;;;;;;;21.40;11.75;;;7.50;99.90;;;;;;4992093;28;20053;-83
2022/03/10 10:00:01;;;;;;;19.77;11.23;;;7.60;99.90;;;;;;5009579;28;20045;-83
2022/03/10 10:02:27;;;;;;;21.15;11.60;;;7.70;99.90;;;;;;4993610;28;20047;-83
2022/03/10 10:04:54;;;;;;;18.70;11.30;;;8.40;99.90;;;;;;4992502;28;20049;-82
2022/03/10 10:07:24;;;;;;;22.00;12.48;;;8.70;99.90;;;;;;5008923;28;20139;-82
2022/03/10 10:09:54;;;;;;;21.58;11.45;;;8.10;99.90;;;;;;5009575;28;20053;-83
2022/03/10 10:12:26;;;;;;;20.88;12.27;;;8.10;99.90;;;;;;4991780;28;20136;-83
2022/03/10 10:14:52;;;;;;;16.73;11.43;;;8.20;99.90;;;;;;4993517;28;20042;-83
2022/03/10 10:17:26;;;;;;;20.13;11.57;;;8.40;99.90;;;;;;4993542;28;20050;-84
2022/03/10 10:19:56;;;;;;;18.75;11.60;;;9.10;99.90;;;;;;4974599;28;20157;-83
2022/03/10 10:22:24;;;;;;;18.17;11.35;;;8.50;99.90;;;;;;4989904;28;20049;-82
2022/03/10 10:24:53;;;;;;;17.70;11.65;;;8.60;99.90;;;;;;4973491;28;20041;-83
2022/03/10 10:27:22;;;;;;;21.92;11.85;;;8.80;99.90;;;;;;4972929;28;20520;-84
2022/03/10 10:29:50;;;;;;;19.33;12.38;;;8.80;99.90;;;;;;4990479;28;20050;-83
2022/03/10 10:32:34;;;;;;;18.10;12.23;;;9.40;99.90;;;;;;4972980;28;20054;-83
2022/03/10 10:35:05;;;;;;;17.23;11.63;;;8.90;99.90;;;;;;4989684;28;20482;-84
2022/03/10 10:37:32;;;;;;;20.25;11.80;;;9.10;99.90;;;;;;4989602;28;20057;-83
2022/03/10 10:39:58;;;;;;;18.50;11.77;;;9.20;99.90;;;;;;4988903;28;20054;-83
2022/03/10 10:42:27;;;;;;;18.85;12.80;;;9.30;99.90;;;;;;4988436;28;20630;-83
2022/03/10 10:44:53;;;;;;;20.88;12.43;;;9.30;99.90;;;;;;4989901;28;20054;-84
2022/03/10 10:47:19;;;;;;;19.33;11.80;;;9.40;99.90;;;;;;4992403;28;20042;-84
2022/03/10 10:49:57;;;;;;;15.70;11.27;;;9.60;99.90;;;;;;4994062;28;20453;-84
2022/03/10 10:52:24;;;;;;;19.85;11.88;;;9.50;99.90;;;;;;4975977;28;20053;-85
2022/03/10 10:55:07;;;;;;;17.77;12.70;;;9.60;99.90;;;;;;4993592;28;20074;-79
2022/03/10 10:57:34;;;;;;;18.30;12.15;;;9.60;99.90;;;;;;4992059;28;20096;-79
2022/03/10 11:00:11;;;;;;;20.45;12.05;;;10.10;99.90;;;;;;4992276;28;20061;-82
2022/03/10 11:02:41;;;;;;;18.80;12.40;;;9.80;99.90;;;;;;4993064;28;20050;-77
2022/03/10 11:05:08;;;;;;;16.38;11.75;;;9.90;99.90;;;;;;4993481;28;20049;-76
2022/03/10 11:07:35;;;;;;;19.55;12.40;;;10.00;99.90;;;;;;5007289;28;20049;-75
2022/03/10 11:10:03;;;;;;;17.20;12.40;;;10.50;99.90;;;;;;5012341;28;20049;-77
2022/03/10 11:12:29;;;;;;;17.75;12.10;;;10.60;99.90;;;;;;4994631;28;20145;-78
2022/03/10 11:14:55;;;;;;;17.52;12.02;;;10.20;99.90;;;;;;5012060;28;20502;-78
2022/03/10 11:17:21;;;;;;;17.20;12.15;;;10.40;99.90;;;;;;4995222;28;20041;-80
2022/03/10 11:19:48;;;;;;;20.90;12.57;;;10.70;99.90;;;;;;5012530;28;20421;-79
2022/03/10 11:22:40;;;;;;;16.83;11.52;;;10.50;99.90;;;;;;5011297;28;20049;-79
2022/03/10 11:25:10;;;;;;;19.92;12.18;;;10.60;99.90;;;;;;4995660;28;20489;-78
2022/03/10 11:27:42;;;;;;;19.02;12.32;;;10.70;99.90;;;;;;5010723;28;20430;-79
2022/03/10 11:30:09;;;;;;;21.77;13.10;;;10.70;99.90;;;;;;5011789;28;20136;-79
2022/03/10 11:32:34;;;;;;;16.92;12.30;;;10.80;99.90;;;;;;5012347;28;20307;-78
2022/03/10 11:35:01;;;;;;;20.92;13.15;;;10.70;99.90;;;;;;4989123;28;20499;-79
2022/03/10 11:37:37;;;;;;;17.20;12.35;;;11.60;99.30;;;;;;5000651;28;20504;-76
2022/03/10 11:40:05;;;;;;;17.08;11.80;;;11.00;99.10;;;;;;5007654;28;20461;-80
2022/03/10 11:42:32;;;;;;;18.75;12.25;;;11.00;99.20;;;;;;4990256;28;20038;-78
2022/03/10 11:45:06;;;;;;;18.90;12.70;;;11.10;98.90;;;;;;4999997;28;20056;-77
2022/03/10 11:47:32;;;;;;;16.67;12.68;;;11.20;97.30;;;;;;4985336;28;20057;-78
2022/03/10 11:50:17;;;;;;;18.85;12.57;;;11.20;97.90;;;;;;4995577;28;20065;-80
2022/03/10 11:52:43;;;;;;;15.48;11.73;;;11.20;98.10;;;;;;5005918;28;20135;-84
2022/03/10 11:55:12;;;;;;;18.25;12.82;;;12.00;98.00;;;;;;4992261;28;20509;-82
2022/03/10 11:57:42;;;;;;;20.95;12.73;;;11.90;97.40;;;;;;4989614;28;20148;-84
2022/03/10 12:00:09;;;;;;;20.65;13.30;;;11.40;97.00;;;;;;4996828;28;20133;-84
2022/03/10 12:02:40;;;;;;;17.98;12.88;;;11.50;96.90;;;;;;4984938;28;20103;-84
2022/03/10 12:05:07;;;;;;;18.33;12.25;;;11.60;96.50;;;;;;4999601;28;20584;-85
2022/03/10 12:07:34;;;;;;;22.17;13.55;;;11.60;96.40;;;;;;4985896;28;20076;-85
2022/03/10 12:10:05;;;;;;;19.55;12.80;;;11.70;93.90;;;;;;4984204;28;20060;-85
2022/03/10 12:12:37;;;;;;;18.52;12.32;;;11.70;93.40;;;;;;4989326;28;20455;-82
2022/03/10 12:15:34;;;;;;;18.58;13.05;;;11.80;91.60;;;;;;4995012;28;20140;-83
2022/03/10 12:18:14;;;;;;;19.00;13.05;;;11.80;91.30;;;;;;4990898;28;20045;-77
2022/03/10 12:20:43;;;;;;;19.58;13.45;;;11.90;90.60;;;;;;4981624;28;20568;-76
2022/03/10 12:23:12;;;;;;;21.67;13.40;;;12.00;90.80;;;;;;5001801;28;20584;-78
2022/03/10 12:25:47;;;;;;;17.15;12.38;;;12.10;90.40;;;;;;5001250;28;20045;-77
2022/03/10 12:28:24;;;;;;;21.45;13.68;;;12.20;90.70;;;;;;4975102;28;20060;-77
2022/03/10 12:31:02;;;;;;;20.92;12.38;;;12.30;84.50;;;;;;4994863;28;20046;-82
2022/03/10 12:33:28;;;;;;;19.75;13.38;;;12.30;81.00;;;;;;4981266;28;20563;-79
2022/03/10 12:35:56;;;;;;;23.90;13.98;;;12.40;83.40;;;;;;4997320;28;20045;-78
2022/03/10 12:38:44;;;;;;;19.60;13.38;;;12.40;83.70;;;;;;5001149;28;20041;-77
2022/03/10 12:41:10;;;;;;;23.13;13.15;;;12.40;78.10;;;;;;5002558;28;20056;-78
2022/03/10 12:43:36;;;;;;;20.13;12.73;;;12.40;80.90;;;;;;4994981;28;20706;-77
2022/03/10 12:46:03;;;;;;;17.67;12.60;;;12.50;80.30;;;;;;4981269;28;20042;-80
2022/03/10 12:48:45;;;;;;;21.67;13.43;;;12.50;80.30;;;;;;4982261;28;20049;-79
2022/03/10 12:51:23;;;;;;;22.13;14.05;;;12.50;80.40;;;;;;4984500;28;20494;-77
2022/03/10 12:53:51;;;;;;;20.52;12.88;;;12.60;76.90;;;;;;4999522;28;20510;-78